Flight Track Log - Related Links

Times and Time Zones

All times are in EDT time to prevent confusion due to time zone crossing. See the EJA922 flight status page for this flight to view local times or setup timezone preferences in your user account.

Time Position Orientation Groundspeed Altitude Reporting Facility
EDT Latitude Longitude Course Direction KTS MPH feet Rate Location/Type
Fri 05:11:36 PM 42.3564 -82.9575 142° Southeast 260 299 4,300  Level Cleveland Center
Fri 05:12:37 PM 42.2903 -82.9381 168° South 267 307 7,100 2,871 Climbing Cleveland Center
Fri 05:13:56 PM 42.2036 -82.9883 203° Southwest 294 338 11,000 2,633 Climbing Cleveland Center
Fri 05:14:56 PM 42.1453 -83.0811 230° Southwest 308 354 13,200 2,500 Climbing Cleveland Center
Fri 05:15:56 PM 42.1819 -83.2228 289° West 296 341 16,000 2,300 Climbing Cleveland Center
Fri 05:16:00 PM 42.4168 -83.9669 270° West  Level FlightAware Approximate
Fri 05:16:56 PM 42.2228 -83.3422 295° West 335 386 17,800  Level Cleveland Center
Fri 05:17:56 PM 42.2733 -83.4875 295° West 398 458 18,000 100 Climbing Cleveland Center
Fri 05:18:56 PM 42.3339 -83.6450 298° West 429 494 18,000 500 Level Cleveland Center
Fri 05:19:56 PM 42.3864 -83.7881 296° West 429 494 19,000 1,000 Climbing Cleveland Center
Fri 05:20:56 PM 42.4425 -83.9428 296° West 434 499 20,000 500 Climbing Cleveland Center
Fri 05:21:56 PM 42.4964 -84.0922 296° West 434 499 20,000  Level Cleveland Center
Fri 05:22:56 PM 42.5481 -84.2389 296° West 439 505 20,000  Level Cleveland Center
Fri 05:24:51 PM 42.6519 -84.5264 296° West 448 516 20,000  Level Chicago Center
Fri 05:25:53 PM 42.7058 -84.6792 296° West 450 518 20,000  Level Chicago Center
Fri 05:26:55 PM 42.7581 -84.8325 295° West 448 516 20,000  Level Chicago Center
Fri 05:27:57 PM 42.8114 -84.9856 295° West 449 517 20,000  Level Chicago Center
Fri 05:28:59 PM 42.8644 -85.1408 295° West 453 521 20,000  Level Chicago Center
Fri 05:30:01 PM 42.9278 -85.3239 295° West 448 516 20,000  Level Chicago Center
Fri 05:31:03 PM 42.9803 -85.4786 295° West 451 519 20,000  Level Chicago Center
Fri 05:32:05 PM 43.0331 -85.6322 295° West 450 518 20,000  Level Chicago Center
Fri 05:33:07 PM 43.0853 -85.7864 295° West 451 519 20,000  Level Chicago Center
Fri 05:34:09 PM 43.1358 -85.9386 295° West 453 521 20,000  Level Chicago Center
Fri 05:35:11 PM 43.1700 -86.1333 284° West 459 528 20,000  Level Chicago Center
Fri 05:36:14 PM 43.1669 -86.3039 269° West 458 527 20,000 -48 Level Chicago Center
Fri 05:37:16 PM 43.1631 -86.4725 268° West 452 520 19,900 -1,258 Descending Chicago Center
Fri 05:38:18 PM 43.1597 -86.6439 269° West 452 520 17,400 -2,806 Descending Chicago Center
Fri 05:39:20 PM 43.1556 -86.8433 268° West 438 504 14,100 -1,935 Descending Chicago Center
Fri 05:40:22 PM 43.1517 -87.0044 268° West 430 495 13,400 -1,306 Descending Chicago Center
Fri 05:41:24 PM 43.1486 -87.1542 268° West 400 460 11,400 -1,645 Descending Chicago Center
Fri 05:42:26 PM 43.1450 -87.3042 268° West 397 457 10,000 -677 Descending Chicago Center
Fri 05:43:28 PM 43.1231 -87.4561 259° West 395 455 10,000 -242 Level Chicago Center
Fri 05:44:30 PM 43.0969 -87.5944 256° West 308 354 9,500 -1,210 Descending Chicago Center
Fri 05:45:32 PM 43.0769 -87.7000 255° West 289 333 7,500 -1,210 Descending Chicago Center
Fri 05:46:34 PM 43.0556 -87.8019 254° West 280 322 7,000 -240 Descending Chicago Center
Fri 05:47:37 PM 43.0358 -87.9019 255° West 272 313 7,000 -624 Level Chicago Center
Fri 05:48:39 PM 43.0175 -87.9961 255° West 259 298 5,700 -1,403 Descending Chicago Center
Fri 05:49:41 PM 42.9886 -88.0889 247° West 262 302 4,100 -1,403 Descending Chicago Center
Fri 05:50:43 PM 42.9172 -88.0864 179° South 246 283 2,800 -871 Descending Chicago Center
Fri 05:51:45 PM 42.9131 -88.0242 95° East 203 234 2,300 -581 Descending Chicago Center
Fri 05:52:47 PM 42.9242 -87.9775 72° East 139 160 1,600 -629 Descending Chicago Center
Fri 05:53:49 PM 42.9342 -87.9364 72° East 127 146 1,000 -435 Descending Chicago Center
Fri 05:54:51 PM 42.9447 -87.8950 71° East 125 144 700 -290 Descending Chicago Center
Fri 05:56:00 PM 42.9469 -87.8971 North  Level Estimated

Login

Don't have an account? Register now (free) for customized features, flight alerts, and more!